Time;durP1;ratioP1;P1;durP2;ratioP2;P2;SDS_P1;SDS_P2;PMS_P1;PMS_P2;Temp;Humidity;BMP_temperature;BMP_pressure;BME280_temperature;BME280_humidity;BME280_pressure;Samples;Min_cycle;Max_cycle;Signal;HPM_P1;HPM_P2
2022/12/30 00:00:01;;;;;;;1.00;0.47;;;8.40;99.90;;;;;;5122902;28;20844;-40
2022/12/30 00:02:26;;;;;;;1.10;0.50;;;8.40;99.90;;;;;;5122082;28;20470;-42
2022/12/30 00:04:52;;;;;;;0.90;0.47;;;8.40;99.90;;;;;;5122483;28;20663;-39
2022/12/30 00:07:18;;;;;;;0.83;0.50;;;8.40;99.90;;;;;;5121655;28;20563;-40
2022/12/30 00:09:45;;;;;;;0.90;0.40;;;8.40;1.00;;;;;;5120690;28;20246;-40
2022/12/30 00:34:16;;;;;;;1.63;0.50;;;8.40;1.00;;;;;;5119206;28;20521;-43
2022/12/30 00:36:42;;;;;;;0.87;0.50;;;8.40;1.00;;;;;;5118169;28;20405;-40
2022/12/30 00:39:08;;;;;;;1.20;0.70;;;8.40;1.00;;;;;;5117825;28;20420;-40
2022/12/30 00:44:17;;;;;;;0.90;0.50;;;8.40;1.00;;;;;;5119079;28;20175;-43
2022/12/30 00:46:43;;;;;;;1.07;0.80;;;8.40;1.00;;;;;;5119103;28;20410;-41
2022/12/30 00:57:22;;;;;;;1.47;0.73;;;8.30;1.00;;;;;;5120126;28;20412;-40
2022/12/30 00:59:47;;;;;;;3.70;0.90;;;8.30;1.00;;;;;;5119681;28;20405;-40
2022/12/30 01:02:13;;;;;;;1.30;0.60;;;8.30;1.00;;;;;;5117994;28;20211;-41
2022/12/30 01:04:39;;;;;;;1.20;0.63;;;8.30;3.50;;;;;;5115990;28;20220;-40
2022/12/30 01:07:04;;;;;;;1.10;0.60;;;8.30;1.00;;;;;;5117073;28;20588;-40
2022/12/30 01:09:30;;;;;;;4.27;1.27;;;8.30;1.00;;;;;;5117771;28;20206;-42
2022/12/30 01:12:07;;;;;;;0.93;0.60;;;8.30;18.00;;;;;;5117808;28;20175;-43
2022/12/30 01:14:41;;;;;;;0.90;0.50;;;8.30;49.10;;;;;;5116621;28;20184;-39
2022/12/30 01:17:09;;;;;;;1.60;0.80;;;8.30;91.50;;;;;;5117530;28;20409;-40
2022/12/30 01:19:34;;;;;;;1.67;0.60;;;8.20;99.90;;;;;;5118435;28;20421;-40
2022/12/30 01:22:00;;;;;;;1.27;0.40;;;8.20;99.90;;;;;;5119689;28;20566;-41
2022/12/30 01:24:26;;;;;;;2.30;0.80;;;8.20;99.90;;;;;;5119424;28;20175;-41
2022/12/30 01:26:51;;;;;;;1.87;0.50;;;8.20;99.90;;;;;;5119299;28;20176;-39
2022/12/30 01:29:25;;;;;;;1.13;0.50;;;8.20;99.90;;;;;;5120168;28;20176;-40
2022/12/30 01:31:57;;;;;;;1.47;0.70;;;8.20;99.90;;;;;;5119494;28;20187;-40
2022/12/30 01:34:22;;;;;;;1.20;0.50;;;8.10;99.90;;;;;;5119199;28;20451;-40
2022/12/30 01:36:49;;;;;;;1.20;0.70;;;8.10;99.90;;;;;;5119755;28;20496;-40
2022/12/30 01:39:15;;;;;;;0.90;0.60;;;8.10;99.90;;;;;;5119071;28;20414;-40
2022/12/30 01:41:41;;;;;;;1.43;0.83;;;8.00;99.90;;;;;;5118016;28;20464;-41
2022/12/30 01:44:44;;;;;;;2.40;0.73;;;8.00;99.90;;;;;;5116108;28;20785;-41
2022/12/30 01:47:14;;;;;;;1.30;0.67;;;8.00;99.90;;;;;;5116592;28;20684;-40
2022/12/30 01:49:41;;;;;;;1.17;0.50;;;8.00;99.90;;;;;;5116094;28;20435;-40
2022/12/30 01:52:07;;;;;;;1.00;0.50;;;7.90;99.90;;;;;;5099393;28;20413;-39
2022/12/30 01:54:34;;;;;;;0.90;0.60;;;7.90;99.90;;;;;;5116408;28;20448;-40
2022/12/30 01:57:00;;;;;;;1.73;0.70;;;7.90;99.90;;;;;;5100667;28;20186;-41
2022/12/30 01:59:27;;;;;;;1.20;0.70;;;7.90;99.90;;;;;;5118688;28;20500;-41
2022/12/30 02:01:53;;;;;;;2.40;1.27;;;7.80;99.90;;;;;;5117258;28;20671;-41
2022/12/30 02:04:21;;;;;;;1.60;1.07;;;7.80;99.90;;;;;;5117263;28;20584;-41
2022/12/30 02:07:03;;;;;;;1.30;0.70;;;7.80;99.90;;;;;;5117879;28;20428;-40
2022/12/30 02:09:30;;;;;;;1.27;0.60;;;7.80;99.90;;;;;;5118232;28;20417;-40
2022/12/30 02:11:57;;;;;;;1.67;0.80;;;7.80;99.90;;;;;;5101313;28;20410;-43
2022/12/30 02:14:24;;;;;;;1.73;0.77;;;7.80;99.90;;;;;;5100036;28;20436;-40
2022/12/30 02:17:04;;;;;;;0.90;0.67;;;7.70;99.90;;;;;;5099350;28;20593;-40
2022/12/30 02:19:53;;;;;;;1.83;1.00;;;7.70;99.90;;;;;;5100623;28;20674;-40
2022/12/30 02:23:03;;;;;;;2.07;0.73;;;7.70;99.90;;;;;;5118311;28;20547;-41
2022/12/30 02:25:53;;;;;;;1.60;0.80;;;7.70;99.90;;;;;;5071305;28;20428;-40
2022/12/30 02:28:22;;;;;;;1.40;1.00;;;7.60;99.90;;;;;;5119159;28;20418;-39
2022/12/30 02:31:11;;;;;;;1.67;1.07;;;7.60;99.90;;;;;;5117278;28;20413;-40
2022/12/30 02:33:50;;;;;;;1.50;1.00;;;7.60;99.90;;;;;;5116940;28;20784;-40
2022/12/30 02:45:54;;;;;;;1.67;0.70;;;7.40;99.90;;;;;;5102856;28;20858;-39
2022/12/30 02:48:26;;;;;;;1.47;0.67;;;7.30;99.90;;;;;;5118030;28;20421;-40
2022/12/30 02:53:38;;;;;;;1.00;0.73;;;7.30;99.90;;;;;;5102028;28;20862;-39
2022/12/30 02:56:04;;;;;;;2.20;0.70;;;7.20;99.90;;;;;;5116916;28;20514;-39
2022/12/30 02:58:34;;;;;;;0.90;0.47;;;7.20;99.90;;;;;;5118973;28;20932;-39
2022/12/30 03:04:01;;;;;;;1.23;0.53;;;7.10;99.90;;;;;;5115983;28;20897;-39
2022/12/30 03:06:45;;;;;;;0.90;0.67;;;7.10;99.90;;;;;;5119290;28;20414;-39
2022/12/30 03:09:18;;;;;;;1.03;0.50;;;7.00;99.90;;;;;;5119420;28;20444;-40
2022/12/30 03:12:10;;;;;;;3.63;0.83;;;7.00;99.90;;;;;;5118484;28;20410;-40
2022/12/30 03:14:40;;;;;;;0.87;0.43;;;7.00;99.90;;;;;;5097586;28;20445;-41
2022/12/30 03:17:32;;;;;;;1.00;0.60;;;6.90;99.90;;;;;;5096960;28;20405;-40
2022/12/30 03:20:02;;;;;;;1.33;0.60;;;6.90;28.40;;;;;;5114500;28;20425;-40
2022/12/30 03:28:01;;;;;;;1.43;0.57;;;6.80;48.10;;;;;;5116258;28;20716;-41
2022/12/30 03:30:27;;;;;;;1.43;0.70;;;6.80;24.70;;;;;;5103096;28;20604;-39
2022/12/30 03:32:55;;;;;;;2.17;0.50;;;6.80;1.00;;;;;;5102306;28;20421;-40
2022/12/30 03:35:22;;;;;;;1.10;0.50;;;6.70;1.00;;;;;;5120602;28;20463;-40
2022/12/30 03:37:54;;;;;;;1.90;0.80;;;6.70;1.00;;;;;;5103263;28;20497;-40
2022/12/30 03:40:31;;;;;;;1.20;0.60;;;6.70;1.00;;;;;;5120388;28;20678;-42
2022/12/30 03:42:58;;;;;;;1.47;0.47;;;6.70;6.90;;;;;;5119406;28;20655;-39
2022/12/30 03:45:24;;;;;;;1.87;1.23;;;6.70;5.80;;;;;;5102086;28;20449;-40
2022/12/30 03:47:49;;;;;;;1.73;0.57;;;6.60;1.00;;;;;;5101991;28;20456;-40
2022/12/30 03:50:15;;;;;;;1.00;0.50;;;6.60;1.00;;;;;;5119808;28;20582;-40
2022/12/30 03:52:40;;;;;;;1.10;0.60;;;6.60;1.00;;;;;;5101104;28;20622;-40
2022/12/30 03:55:07;;;;;;;0.97;0.50;;;6.50;1.00;;;;;;5120205;28;20198;-39
2022/12/30 03:57:33;;;;;;;0.90;0.50;;;6.50;1.00;;;;;;5121545;28;20278;-39
2022/12/30 03:59:59;;;;;;;1.27;0.53;;;6.50;1.00;;;;;;5120861;28;20505;-39
2022/12/30 04:02:24;;;;;;;2.27;1.03;;;6.50;1.00;;;;;;5102874;28;20653;-41
2022/12/30 04:04:51;;;;;;;1.40;0.63;;;6.40;1.00;;;;;;5121176;28;20496;-41
2022/12/30 04:07:17;;;;;;;1.27;0.70;;;6.40;1.00;;;;;;5121037;28;20224;-40
2022/12/30 04:09:42;;;;;;;1.10;0.77;;;6.40;1.00;;;;;;5120895;28;20405;-40
2022/12/30 04:12:08;;;;;;;0.80;0.40;;;6.30;1.00;;;;;;5119132;28;20428;-38
2022/12/30 04:14:34;;;;;;;0.87;0.63;;;6.30;1.00;;;;;;5117676;28;20445;-39
2022/12/30 04:16:59;;;;;;;0.80;0.50;;;6.30;1.00;;;;;;5100079;28;20172;-39
2022/12/30 04:19:25;;;;;;;1.00;0.60;;;6.20;1.00;;;;;;5119875;28;20569;-42
2022/12/30 04:21:51;;;;;;;1.50;0.50;;;6.20;1.00;;;;;;5119582;28;20231;-40
2022/12/30 04:24:16;;;;;;;0.70;0.40;;;6.20;1.00;;;;;;5119091;28;20271;-39
2022/12/30 04:26:42;;;;;;;2.23;0.57;;;6.20;1.00;;;;;;5119774;28;20268;-39
2022/12/30 04:29:08;;;;;;;1.20;0.60;;;6.20;1.00;;;;;;5120816;28;20233;-39
2022/12/30 04:31:33;;;;;;;0.90;0.40;;;6.20;1.00;;;;;;5120622;28;20179;-41
2022/12/30 04:33:59;;;;;;;1.00;0.50;;;6.10;1.00;;;;;;5120590;28;20190;-39
2022/12/30 04:36:25;;;;;;;0.90;0.50;;;6.10;1.00;;;;;;5120370;28;20179;-42
2022/12/30 04:38:50;;;;;;;1.00;0.80;;;6.10;1.00;;;;;;5119852;28;20654;-39
2022/12/30 04:41:19;;;;;;;1.13;0.97;;;6.10;1.00;;;;;;5120061;28;20256;-39
2022/12/30 04:43:46;;;;;;;1.00;0.57;;;6.10;1.00;;;;;;5120342;28;20254;-39
2022/12/30 04:46:12;;;;;;;1.87;0.60;;;6.00;1.00;;;;;;5120360;28;20406;-40
2022/12/30 04:48:37;;;;;;;1.00;0.40;;;6.00;1.00;;;;;;5119816;28;20494;-41
2022/12/30 04:51:03;;;;;;;1.73;0.70;;;6.00;1.00;;;;;;5119372;28;20186;-42
2022/12/30 04:53:29;;;;;;;1.20;0.63;;;6.00;1.00;;;;;;5119200;28;20176;-40
2022/12/30 04:55:55;;;;;;;1.33;0.67;;;6.00;1.00;;;;;;5119624;28;20413;-40
2022/12/30 04:58:22;;;;;;;1.20;0.60;;;5.90;1.00;;;;;;5119059;28;20329;-39
2022/12/30 05:00:49;;;;;;;1.10;0.60;;;5.90;1.00;;;;;;5117716;28;20420;-40
2022/12/30 05:03:15;;;;;;;0.90;0.40;;;5.90;1.00;;;;;;5119070;28;20693;-41
2022/12/30 05:05:41;;;;;;;1.07;0.53;;;5.90;1.00;;;;;;5119059;28;20447;-39
2022/12/30 05:08:06;;;;;;;1.03;0.60;;;5.90;1.00;;;;;;5118573;28;20526;-40
2022/12/30 05:10:38;;;;;;;0.80;0.50;;;5.90;1.00;;;;;;5118372;28;20267;-39
2022/12/30 05:13:05;;;;;;;2.07;0.80;;;5.90;14.10;;;;;;5118580;28;20180;-41
2022/12/30 05:15:30;;;;;;;1.13;0.70;;;5.90;37.60;;;;;;5118855;28;20425;-40
2022/12/30 05:17:56;;;;;;;1.07;0.70;;;5.90;99.90;;;;;;5118722;28;20805;-39
2022/12/30 05:20:22;;;;;;;0.87;0.50;;;5.90;99.90;;;;;;5119099;28;20562;-41
2022/12/30 05:22:48;;;;;;;1.43;0.80;;;5.90;99.90;;;;;;5119459;28;20207;-40
2022/12/30 05:27:58;;;;;;;1.10;0.60;;;5.90;99.90;;;;;;5118171;28;20174;-39
2022/12/30 05:30:26;;;;;;;1.00;0.47;;;5.90;99.90;;;;;;5119094;28;20481;-40
2022/12/30 05:32:52;;;;;;;1.00;0.70;;;5.80;99.90;;;;;;5119524;28;20187;-40
2022/12/30 05:35:18;;;;;;;0.90;0.60;;;5.90;99.90;;;;;;5119568;28;20417;-39
2022/12/30 05:37:44;;;;;;;1.30;0.73;;;5.80;99.90;;;;;;5118784;28;20208;-40
2022/12/30 05:40:10;;;;;;;1.07;0.57;;;5.80;99.90;;;;;;5099168;28;20449;-39
2022/12/30 05:42:36;;;;;;;1.40;0.70;;;5.80;99.90;;;;;;5117485;28;20291;-41
2022/12/30 05:45:03;;;;;;;2.00;0.60;;;5.80;99.90;;;;;;5116642;28;20826;-39
2022/12/30 05:47:29;;;;;;;1.87;0.70;;;5.80;99.90;;;;;;5118009;28;20421;-40
2022/12/30 05:49:54;;;;;;;1.00;0.50;;;5.90;99.90;;;;;;5117580;28;20491;-40
2022/12/30 05:52:20;;;;;;;1.40;0.70;;;5.80;99.90;;;;;;5115487;28;20168;-39
2022/12/30 05:54:46;;;;;;;0.90;0.60;;;5.80;99.90;;;;;;5115629;28;20175;-39
2022/12/30 05:57:12;;;;;;;0.90;0.50;;;5.80;99.90;;;;;;5114627;28;20905;-41
2022/12/30 05:59:37;;;;;;;0.80;0.40;;;5.80;99.90;;;;;;5115257;28;20297;-40
2022/12/30 06:02:03;;;;;;;1.30;0.60;;;5.80;99.90;;;;;;5117070;28;20302;-40
2022/12/30 06:04:29;;;;;;;0.90;0.50;;;5.80;99.90;;;;;;5099319;28;20501;-41
2022/12/30 06:10:16;;;;;;;0.80;0.60;;;5.80;99.90;;;;;;5116920;28;20272;-38
2022/12/30 06:12:42;;;;;;;0.90;0.53;;;5.80;99.90;;;;;;5116618;28;20826;-41
2022/12/30 06:15:08;;;;;;;0.97;0.60;;;5.80;99.90;;;;;;5115887;28;20245;-41
2022/12/30 06:17:34;;;;;;;0.90;0.50;;;5.70;99.90;;;;;;5115194;28;20180;-39
2022/12/30 06:19:59;;;;;;;1.50;0.60;;;5.70;76.00;;;;;;5080219;28;20501;-39
2022/12/30 06:22:25;;;;;;;0.83;0.50;;;5.70;30.90;;;;;;5114871;28;20295;-39
2022/12/30 06:24:50;;;;;;;1.20;0.80;;;5.70;3.80;;;;;;5113234;28;20176;-39
2022/12/30 06:27:16;;;;;;;1.00;0.60;;;5.70;1.00;;;;;;5113776;28;20307;-40
2022/12/30 06:29:42;;;;;;;1.10;0.60;;;5.70;1.00;;;;;;5113063;28;20171;-40
2022/12/30 06:32:07;;;;;;;1.57;0.77;;;5.60;1.00;;;;;;5096478;28;20188;-40
2022/12/30 06:34:33;;;;;;;1.60;0.60;;;5.60;1.00;;;;;;5113155;28;20179;-38
2022/12/30 06:36:59;;;;;;;0.83;0.47;;;5.60;1.00;;;;;;5114457;28;20413;-40
2022/12/30 06:39:24;;;;;;;1.70;0.70;;;5.60;1.00;;;;;;5115430;28;20187;-40
2022/12/30 06:41:50;;;;;;;1.17;0.70;;;5.60;1.00;;;;;;5114402;28;20434;-40
2022/12/30 06:44:16;;;;;;;1.87;0.50;;;5.60;1.00;;;;;;5115601;28;20310;-42
2022/12/30 06:46:41;;;;;;;1.13;0.87;;;5.50;1.00;;;;;;5114796;28;20234;-40
2022/12/30 06:49:08;;;;;;;1.00;0.70;;;5.50;1.00;;;;;;5096273;28;20271;-41
2022/12/30 06:51:34;;;;;;;1.00;0.60;;;5.40;1.00;;;;;;5115805;28;20662;-40
2022/12/30 06:53:59;;;;;;;1.00;0.70;;;5.40;1.00;;;;;;5114593;28;20504;-39
2022/12/30 06:56:25;;;;;;;1.40;0.87;;;5.40;1.00;;;;;;5114957;28;20194;-40
2022/12/30 06:58:50;;;;;;;1.00;0.70;;;5.40;1.00;;;;;;5095382;28;20638;-40
2022/12/30 07:01:16;;;;;;;1.40;0.90;;;5.40;1.00;;;;;;5114612;28;20200;-39
2022/12/30 07:03:42;;;;;;;0.80;0.50;;;5.30;1.00;;;;;;5112165;27;20571;-39
2022/12/30 07:06:07;;;;;;;0.90;0.67;;;5.30;99.90;;;;;;5112026;28;20167;-41
2022/12/30 07:08:33;;;;;;;2.60;0.63;;;5.30;99.90;;;;;;5112893;28;20211;-39
2022/12/30 07:10:59;;;;;;;1.00;0.63;;;5.30;99.90;;;;;;5111558;28;20168;-38
2022/12/30 07:13:26;;;;;;;1.57;1.03;;;5.30;99.90;;;;;;5093325;28;20172;-40
2022/12/30 07:15:51;;;;;;;1.67;0.80;;;5.30;99.90;;;;;;5112664;28;20187;-40
2022/12/30 07:18:17;;;;;;;1.30;1.03;;;5.30;99.90;;;;;;5112997;28;20456;-39
2022/12/30 07:20:43;;;;;;;1.23;0.60;;;5.30;99.90;;;;;;5113414;28;20409;-39
2022/12/30 07:23:09;;;;;;;1.43;0.90;;;5.30;99.90;;;;;;5114289;28;20741;-39
2022/12/30 07:25:35;;;;;;;1.30;0.80;;;5.30;99.90;;;;;;5113580;28;20254;-39
2022/12/30 07:28:02;;;;;;;1.00;0.70;;;5.40;99.90;;;;;;5114668;28;20553;-39
2022/12/30 07:30:31;;;;;;;1.23;0.80;;;5.40;99.90;;;;;;5096864;28;20581;-39
2022/12/30 07:32:57;;;;;;;1.23;0.80;;;5.40;99.90;;;;;;5113514;28;20468;-39
2022/12/30 07:35:24;;;;;;;1.50;0.80;;;5.40;99.90;;;;;;5115562;28;20425;-41
2022/12/30 07:37:50;;;;;;;1.20;0.77;;;5.40;99.90;;;;;;5115228;28;20413;-40
2022/12/30 07:40:16;;;;;;;1.97;0.87;;;5.50;99.90;;;;;;5116179;28;20426;-40
2022/12/30 07:42:42;;;;;;;1.10;0.80;;;5.50;99.90;;;;;;5115755;28;20480;-39
2022/12/30 07:45:08;;;;;;;2.20;0.93;;;5.60;81.70;;;;;;5115146;28;20637;-40
2022/12/30 07:47:34;;;;;;;1.23;0.90;;;5.60;99.90;;;;;;5115081;28;20175;-42
2022/12/30 07:50:00;;;;;;;1.90;1.27;;;5.80;99.90;;;;;;5115368;28;20413;-39
2022/12/30 07:52:27;;;;;;;1.90;1.00;;;6.00;98.60;;;;;;5114138;28;20445;-39
2022/12/30 07:54:52;;;;;;;1.20;1.00;;;6.30;12.20;;;;;;5110936;28;20421;-40
2022/12/30 07:57:18;;;;;;;1.10;0.80;;;6.60;1.00;;;;;;5112129;28;20737;-39
2022/12/30 07:59:43;;;;;;;1.40;0.90;;;6.90;99.90;;;;;;5095206;28;20493;-40
2022/12/30 08:02:11;;;;;;;1.33;1.03;;;7.40;99.90;;;;;;5112457;28;20207;-46
2022/12/30 08:04:36;;;;;;;1.00;0.80;;;7.80;1.00;;;;;;5111508;28;20168;-39
2022/12/30 08:07:02;;;;;;;1.23;0.80;;;8.30;99.90;;;;;;5092358;28;20417;-39
2022/12/30 08:09:28;;;;;;;1.30;1.00;;;8.70;1.00;;;;;;5113061;28;20182;-39
2022/12/30 08:11:53;;;;;;;1.90;1.20;;;9.00;99.90;;;;;;5112508;28;20413;-41
2022/12/30 08:14:19;;;;;;;2.17;1.00;;;9.30;1.00;;;;;;5112895;28;20168;-41
2022/12/30 08:16:44;;;;;;;2.10;1.13;;;9.70;99.90;;;;;;5116877;28;20420;-39
2022/12/30 08:19:10;;;;;;;1.50;1.30;;;10.10;15.60;;;;;;5114548;28;20233;-39
2022/12/30 08:21:36;;;;;;;1.30;1.00;;;10.50;99.90;;;;;;5113781;28;20471;-39
2022/12/30 08:24:02;;;;;;;2.53;1.40;;;10.90;56.30;;;;;;5114612;28;20179;-41
2022/12/30 08:26:27;;;;;;;2.20;1.50;;;11.30;1.00;;;;;;5115014;28;20198;-40
2022/12/30 08:28:53;;;;;;;3.00;2.40;;;11.60;99.90;;;;;;5094484;28;20197;-40
2022/12/30 08:31:23;;;;;;;4.07;2.90;;;12.00;99.90;;;;;;5112629;28;20191;-42
2022/12/30 08:33:49;;;;;;;3.73;3.03;;;12.40;48.20;;;;;;5112665;28;20459;-42
2022/12/30 08:36:18;;;;;;;3.47;2.80;;;12.80;1.00;;;;;;5114274;28;20686;-41
2022/12/30 08:38:47;;;;;;;2.33;1.90;;;13.00;1.00;;;;;;5111736;28;20825;-42
2022/12/30 08:41:21;;;;;;;2.73;2.00;;;13.10;1.00;;;;;;5112980;28;20486;-41
2022/12/30 08:43:47;;;;;;;1.90;1.60;;;13.40;1.00;;;;;;5115716;28;20870;-40
2022/12/30 08:46:13;;;;;;;2.03;1.80;;;13.70;99.90;;;;;;5114769;28;20413;-40
2022/12/30 08:48:39;;;;;;;1.70;1.40;;;14.00;99.90;;;;;;5114178;28;20429;-38
2022/12/30 08:51:06;;;;;;;1.50;1.07;;;14.50;99.90;;;;;;5114800;28;20481;-38
2022/12/30 08:53:33;;;;;;;1.37;1.10;;;15.10;55.80;;;;;;5113474;28;20340;-39
2022/12/30 08:56:07;;;;;;;5.63;1.20;;;15.70;1.00;;;;;;5114064;28;20418;-39
2022/12/30 08:58:34;;;;;;;2.40;1.60;;;16.40;1.00;;;;;;5113500;28;20427;-39
2022/12/30 09:01:06;;;;;;;1.90;1.40;;;17.10;1.00;;;;;;5114235;28;20416;-41
2022/12/30 09:03:32;;;;;;;2.17;1.00;;;17.70;1.00;;;;;;5112910;28;20945;-40
2022/12/30 09:05:58;;;;;;;1.23;0.90;;;18.20;1.00;;;;;;5113386;28;20486;-41
2022/12/30 09:08:23;;;;;;;1.47;0.90;;;18.80;1.00;;;;;;5115545;28;20176;-41
2022/12/30 09:11:03;;;;;;;1.40;0.77;;;19.40;1.00;;;;;;5115626;28;20180;-42
2022/12/30 09:13:30;;;;;;;2.03;1.20;;;20.10;1.00;;;;;;5114869;28;20187;-42
2022/12/30 09:15:56;;;;;;;1.30;0.90;;;20.50;1.00;;;;;;5098741;28;20448;-41
2022/12/30 09:18:22;;;;;;;1.70;0.90;;;21.00;1.00;;;;;;5097550;28;20413;-40
2022/12/30 09:20:48;;;;;;;2.00;1.07;;;21.30;1.00;;;;;;5115342;28;20425;-42
2022/12/30 09:23:14;;;;;;;1.60;0.83;;;21.80;1.00;;;;;;5117665;28;20207;-41
2022/12/30 09:25:39;;;;;;;1.50;1.07;;;22.20;1.00;;;;;;5116391;28;20172;-43
2022/12/30 09:28:05;;;;;;;1.27;0.93;;;22.40;1.00;;;;;;5115623;28;20215;-41
2022/12/30 09:30:31;;;;;;;1.50;0.80;;;22.70;1.00;;;;;;5115515;28;20258;-40
2022/12/30 09:32:56;;;;;;;3.40;1.20;;;23.10;1.00;;;;;;5115780;28;20455;-43
2022/12/30 09:35:22;;;;;;;3.23;1.10;;;23.40;1.00;;;;;;5114874;28;20449;-40
2022/12/30 09:37:48;;;;;;;2.57;1.13;;;23.70;1.00;;;;;;5114276;28;20195;-41
2022/12/30 09:40:30;;;;;;;2.10;1.00;;;23.90;1.00;;;;;;5110629;28;20796;-42
2022/12/30 09:43:15;;;;;;;1.40;0.93;;;24.20;1.00;;;;;;5076814;28;20223;-42
2022/12/30 09:45:49;;;;;;;1.60;0.90;;;24.30;1.00;;;;;;5095676;28;20429;-40
2022/12/30 09:48:23;;;;;;;1.30;1.00;;;24.50;1.00;;;;;;5095029;28;21024;-40
2022/12/30 09:50:59;;;;;;;1.80;0.93;;;24.70;1.00;;;;;;5095538;28;20422;-40
2022/12/30 09:53:34;;;;;;;1.50;0.90;;;25.10;1.00;;;;;;5060546;28;20457;-41
2022/12/30 09:56:03;;;;;;;1.33;1.00;;;25.40;1.00;;;;;;5094955;28;20516;-41
2022/12/30 09:58:30;;;;;;;2.30;1.00;;;25.90;1.00;;;;;;5092759;28;20849;-39
2022/12/30 10:01:14;;;;;;;3.13;0.97;;;26.60;1.00;;;;;;5073653;28;20418;-40
2022/12/30 10:03:39;;;;;;;1.60;0.97;;;27.30;1.00;;;;;;5086336;28;20440;-40
2022/12/30 10:06:17;;;;;;;3.00;1.07;;;27.90;1.00;;;;;;5092855;28;20425;-40
2022/12/30 10:09:05;;;;;;;1.40;0.90;;;28.20;1.00;;;;;;5093376;28;20274;-40
2022/12/30 10:11:55;;;;;;;1.27;0.73;;;28.60;1.00;;;;;;5112292;28;20394;-43
2022/12/30 10:14:42;;;;;;;1.90;0.90;;;28.90;1.00;;;;;;5111651;28;20590;-41
2022/12/30 10:17:24;;;;;;;1.30;0.73;;;29.30;1.00;;;;;;5106380;28;20505;-40
2022/12/30 10:20:34;;;;;;;3.40;1.30;;;29.50;1.00;;;;;;5077374;28;20413;-42
2022/12/30 10:23:16;;;;;;;1.80;1.20;;;29.50;1.00;;;;;;5004699;28;20610;-44
2022/12/30 10:25:54;;;;;;;2.33;0.97;;;29.90;1.00;;;;;;5110622;28;20403;-44
2022/12/30 10:28:27;;;;;;;1.60;0.90;;;30.20;1.00;;;;;;5110915;28;20412;-42
2022/12/30 10:30:53;;;;;;;1.30;0.73;;;30.50;1.00;;;;;;5104436;28;20495;-45
2022/12/30 10:33:22;;;;;;;1.63;0.90;;;30.50;1.00;;;;;;5108713;28;20421;-44
2022/12/30 10:35:57;;;;;;;3.73;0.70;;;30.30;1.00;;;;;;5113414;28;20433;-41
2022/12/30 10:38:30;;;;;;;1.40;0.70;;;29.90;1.00;;;;;;5105067;28;20735;-41
2022/12/30 10:41:14;;;;;;;2.00;1.00;;;29.40;1.00;;;;;;5091478;28;20737;-43
2022/12/30 10:44:14;;;;;;;1.10;0.70;;;28.90;1.00;;;;;;5096042;28;20667;-41
2022/12/30 10:46:55;;;;;;;2.40;0.90;;;28.20;1.00;;;;;;5080311;28;20490;-41
2022/12/30 10:49:33;;;;;;;2.60;1.03;;;27.80;1.00;;;;;;5113208;28;20737;-40
2022/12/30 10:52:00;;;;;;;2.57;0.97;;;27.50;1.00;;;;;;5093595;28;20424;-40
2022/12/30 10:54:26;;;;;;;1.40;0.90;;;27.20;1.00;;;;;;5113090;28;20503;-40
2022/12/30 10:56:51;;;;;;;1.67;1.00;;;27.10;1.00;;;;;;5113559;28;20848;-41
2022/12/30 10:59:27;;;;;;;1.37;0.83;;;27.20;1.00;;;;;;5111822;28;20171;-40
2022/12/30 11:02:00;;;;;;;1.60;1.10;;;27.30;1.00;;;;;;5095060;28;20210;-40
2022/12/30 11:04:38;;;;;;;1.40;0.83;;;27.40;1.00;;;;;;5093107;28;20413;-41
2022/12/30 11:07:07;;;;;;;3.07;0.80;;;27.50;1.00;;;;;;5112298;28;20429;-39
2022/12/30 11:09:33;;;;;;;1.83;1.10;;;27.50;1.00;;;;;;5114585;28;20452;-40
2022/12/30 11:14:56;;;;;;;2.80;1.17;;;27.60;1.00;;;;;;5096117;28;20465;-41
2022/12/30 11:17:27;;;;;;;1.47;1.00;;;27.60;1.00;;;;;;5112718;28;20427;-41
2022/12/30 11:20:05;;;;;;;1.77;0.87;;;27.70;1.00;;;;;;5112326;28;20504;-42
2022/12/30 11:22:30;;;;;;;2.23;1.00;;;27.70;1.00;;;;;;5093125;28;21010;-40
2022/12/30 11:25:27;;;;;;;2.00;1.30;;;28.10;1.00;;;;;;5112495;28;20530;-41
2022/12/30 11:27:57;;;;;;;1.53;0.93;;;28.60;1.00;;;;;;5094419;28;20346;-40
2022/12/30 11:30:30;;;;;;;2.17;1.20;;;28.80;1.00;;;;;;5096311;28;20416;-41
2022/12/30 11:32:59;;;;;;;2.23;0.80;;;28.80;1.00;;;;;;5096433;28;20739;-40
2022/12/30 11:35:39;;;;;;;1.83;1.10;;;28.40;1.00;;;;;;5112230;28;20836;-40
2022/12/30 11:38:33;;;;;;;1.93;1.47;;;27.80;1.00;;;;;;5113342;28;20395;-42
2022/12/30 11:41:17;;;;;;;1.37;1.03;;;27.20;1.00;;;;;;5113981;28;20459;-41
2022/12/30 11:43:47;;;;;;;2.07;1.40;;;26.40;1.00;;;;;;5093658;28;20888;-43
2022/12/30 11:46:15;;;;;;;1.40;1.00;;;25.70;1.00;;;;;;5113454;28;20428;-40
2022/12/30 11:48:54;;;;;;;2.10;1.30;;;25.10;1.00;;;;;;5112674;28;20522;-40
2022/12/30 11:51:25;;;;;;;1.40;1.00;;;24.50;1.00;;;;;;5099649;28;20457;-42
2022/12/30 11:54:10;;;;;;;1.43;1.20;;;24.10;1.00;;;;;;5101438;28;20697;-40
2022/12/30 11:56:38;;;;;;;1.40;0.80;;;23.50;1.00;;;;;;5117575;28;20417;-40
2022/12/30 11:59:14;;;;;;;2.40;1.13;;;22.90;1.00;;;;;;5097882;28;20493;-41
2022/12/30 12:01:45;;;;;;;1.53;1.10;;;22.20;1.00;;;;;;5114849;28;20517;-43
2022/12/30 12:04:39;;;;;;;1.60;1.00;;;21.40;1.00;;;;;;5098232;28;20456;-42
2022/12/30 12:07:24;;;;;;;2.53;1.20;;;20.60;1.00;;;;;;5094216;28;21031;-42
2022/12/30 12:09:55;;;;;;;1.67;1.10;;;19.70;1.00;;;;;;5056868;28;21027;-39
2022/12/30 12:12:25;;;;;;;2.30;1.23;;;19.00;1.00;;;;;;5053640;28;20616;-39
2022/12/30 12:15:33;;;;;;;2.37;1.20;;;18.50;1.00;;;;;;5053729;28;20990;-41
2022/12/30 12:18:09;;;;;;;1.50;1.17;;;17.90;1.00;;;;;;5041435;28;20644;-41
2022/12/30 12:20:40;;;;;;;1.80;1.20;;;17.40;1.00;;;;;;5055790;28;20847;-39
2022/12/30 12:23:18;;;;;;;2.93;1.13;;;17.00;1.00;;;;;;5058499;28;20460;-40
2022/12/30 12:26:07;;;;;;;3.50;2.20;;;16.60;1.00;;;;;;5056829;28;20444;-39
2022/12/30 12:28:34;;;;;;;2.10;1.60;;;16.30;1.00;;;;;;5055431;28;20409;-41
2022/12/30 12:31:31;;;;;;;2.33;2.00;;;16.00;1.00;;;;;;5055514;28;20539;-42
2022/12/30 12:34:34;;;;;;;1.90;1.70;;;15.70;1.00;;;;;;5055276;28;20792;-39
2022/12/30 12:37:17;;;;;;;1.90;1.20;;;15.50;1.00;;;;;;5055162;28;20420;-40
2022/12/30 12:39:54;;;;;;;1.60;1.30;;;15.30;1.00;;;;;;5055143;28;20431;-39
2022/12/30 12:42:28;;;;;;;2.13;1.17;;;15.10;1.00;;;;;;5052273;28;20463;-40
2022/12/30 12:45:29;;;;;;;1.50;1.00;;;14.90;1.00;;;;;;5054550;28;20493;-50
2022/12/30 12:48:32;;;;;;;1.53;1.07;;;14.70;1.00;;;;;;5051678;28;20513;-41
2022/12/30 12:51:28;;;;;;;1.17;0.90;;;14.60;1.00;;;;;;5051179;28;20420;-40
2022/12/30 12:54:12;;;;;;;1.90;1.20;;;14.40;1.00;;;;;;5053228;28;20417;-40
2022/12/30 12:56:52;;;;;;;2.50;1.20;;;14.30;1.00;;;;;;5051508;28;20422;-40
2022/12/30 12:59:36;;;;;;;1.87;1.67;;;14.20;1.00;;;;;;5050531;28;20511;-40
2022/12/30 13:02:23;;;;;;;2.20;1.00;;;14.00;1.00;;;;;;5051441;28;20555;-39
2022/12/30 13:05:00;;;;;;;1.80;1.30;;;13.90;1.00;;;;;;5052831;28;20416;-39
2022/12/30 13:07:48;;;;;;;2.80;1.57;;;13.80;1.00;;;;;;5054010;28;20762;-40
2022/12/30 13:10:26;;;;;;;2.50;1.40;;;13.70;1.00;;;;;;5056566;28;20415;-40
2022/12/30 13:13:07;;;;;;;1.93;1.40;;;13.60;1.00;;;;;;5053650;28;20420;-39
2022/12/30 13:15:40;;;;;;;1.70;1.60;;;13.60;1.00;;;;;;5054665;28;20672;-40
2022/12/30 13:18:12;;;;;;;3.33;2.23;;;13.60;1.00;;;;;;5055566;28;20415;-41
2022/12/30 13:20:50;;;;;;;1.70;1.50;;;13.70;1.00;;;;;;5052660;28;20420;-41
2022/12/30 13:23:17;;;;;;;1.80;1.30;;;13.80;1.00;;;;;;5054686;28;20901;-40
2022/12/30 13:25:50;;;;;;;1.70;1.47;;;13.80;1.00;;;;;;5054516;28;20424;-40
2022/12/30 13:28:23;;;;;;;1.77;1.30;;;13.80;1.00;;;;;;5055278;28;20417;-40
2022/12/30 13:31:02;;;;;;;1.70;1.57;;;13.70;1.00;;;;;;5055195;28;20471;-40
2022/12/30 13:33:40;;;;;;;2.93;2.17;;;13.70;1.00;;;;;;5055092;28;20698;-42
2022/12/30 13:36:25;;;;;;;5.93;1.80;;;13.50;1.00;;;;;;5055018;28;20572;-40
2022/12/30 13:38:59;;;;;;;2.30;1.70;;;13.40;1.00;;;;;;5055419;28;20617;-39
2022/12/30 13:41:26;;;;;;;2.07;1.27;;;13.10;1.00;;;;;;5052400;28;20439;-40
2022/12/30 13:43:57;;;;;;;4.33;1.63;;;13.00;1.00;;;;;;5050816;28;20882;-40
2022/12/30 13:46:31;;;;;;;1.40;1.10;;;12.80;1.00;;;;;;5052438;28;20435;-41
2022/12/30 13:48:59;;;;;;;1.67;1.50;;;12.70;1.00;;;;;;5051770;28;20455;-40
2022/12/30 13:51:27;;;;;;;2.57;1.83;;;12.50;1.00;;;;;;5051358;28;20424;-39
2022/12/30 13:54:02;;;;;;;4.73;2.27;;;12.40;1.00;;;;;;5050435;28;20881;-39
2022/12/30 13:56:37;;;;;;;2.23;1.80;;;12.20;1.00;;;;;;5053613;28;20412;-40
2022/12/30 13:59:04;;;;;;;2.07;1.57;;;12.10;34.90;;;;;;5053944;28;20962;-40
2022/12/30 14:01:39;;;;;;;2.57;1.77;;;12.00;84.60;;;;;;5054402;28;20812;-39
2022/12/30 14:04:10;;;;;;;2.53;1.67;;;11.90;99.90;;;;;;5053626;28;20408;-41
2022/12/30 14:06:43;;;;;;;1.87;1.40;;;11.80;99.90;;;;;;5054033;28;20515;-40
2022/12/30 14:09:16;;;;;;;2.07;1.37;;;11.70;99.90;;;;;;5054778;28;20862;-42
2022/12/30 14:12:03;;;;;;;2.07;1.53;;;11.70;99.90;;;;;;5048440;28;20694;-40
2022/12/30 14:14:36;;;;;;;2.63;1.50;;;11.60;99.90;;;;;;5049279;28;20416;-39
2022/12/30 14:17:10;;;;;;;3.47;1.93;;;11.50;99.90;;;;;;5052595;28;20490;-40
2022/12/30 14:19:52;;;;;;;3.03;2.00;;;11.50;1.00;;;;;;5051304;28;20466;-39